Time;durP1;ratioP1;P1;durP2;ratioP2;P2;SDS_P1;SDS_P2;PMS_P1;PMS_P2;Temp;Humidity;BMP_temperature;BMP_pressure;BME280_temperature;BME280_humidity;BME280_pressure;Samples;Min_cycle;Max_cycle;Signal;HPM_P1;HPM_P2
2023/01/08 00:01:32;;;;;;;20.40;3.13;;;;;;;5.63;100.00;97997.69;5056470;28;20139;-77
2023/01/08 00:03:57;;;;;;;5.22;2.60;;;;;;;5.59;100.00;97987.69;5039155;28;20458;-77
2023/01/08 00:06:24;;;;;;;22.13;5.45;;;;;;;5.48;100.00;97986.50;5039604;28;20032;-77
2023/01/08 00:08:50;;;;;;;21.45;5.18;;;;;;;5.37;100.00;97968.47;5056252;28;20067;-77
2023/01/08 00:11:15;;;;;;;22.38;5.15;;;;;;;5.55;100.00;97981.13;5072400;28;20060;-76
2023/01/08 00:13:41;;;;;;;15.52;4.00;;;;;;;5.56;100.00;97980.94;5039405;28;20086;-76
2023/01/08 00:16:09;;;;;;;14.13;3.45;;;;;;;5.48;100.00;97989.97;5039580;28;20410;-76
2023/01/08 00:18:35;;;;;;;12.13;2.95;;;;;;;5.42;100.00;97988.13;5072583;28;20071;-75
2023/01/08 00:21:01;;;;;;;8.30;2.55;;;;;;;5.39;100.00;97980.56;5039335;28;20064;-76
2023/01/08 00:23:27;;;;;;;15.68;2.78;;;;;;;5.38;100.00;97975.47;5039061;28;20086;-76
2023/01/08 00:25:52;;;;;;;13.52;3.47;;;;;;;5.39;100.00;97971.75;5039315;28;20033;-78
2023/01/08 00:28:19;;;;;;;15.68;3.13;;;;;;;5.40;100.00;97978.72;5039364;28;20043;-74
2023/01/08 00:30:46;;;;;;;19.83;3.30;;;;;;;5.27;100.00;97958.28;5055769;28;20036;-76
2023/01/08 00:33:11;;;;;;;14.23;2.45;;;;;;;5.14;100.00;97959.16;5055753;28;20041;-76
2023/01/08 00:35:38;;;;;;;21.58;4.15;;;;;;;5.04;100.00;97953.44;5055254;28;20086;-76
2023/01/08 00:38:04;;;;;;;13.93;2.50;;;;;;;4.95;100.00;97949.34;5055730;28;20102;-76
2023/01/08 00:40:30;;;;;;;11.98;2.58;;;;;;;4.80;100.00;97953.06;5038677;28;20029;-76
2023/01/08 00:42:55;;;;;;;8.75;1.92;;;;;;;4.64;100.00;97964.16;5055415;28;20040;-76
2023/01/08 00:45:21;;;;;;;5.63;2.30;;;;;;;4.53;100.00;97959.47;5072104;28;20036;-76
2023/01/08 00:47:47;;;;;;;9.15;2.05;;;;;;;4.61;100.00;97968.03;5038937;28;20459;-76
2023/01/08 00:50:13;;;;;;;6.20;1.27;;;;;;;4.30;100.00;97915.47;5039010;28;20386;-78
2023/01/08 00:52:38;;;;;;;10.35;1.83;;;;;;;4.54;100.00;97953.91;5039004;28;20058;-76
2023/01/08 00:55:05;;;;;;;9.23;1.60;;;;;;;4.60;100.00;97962.91;5039010;28;20036;-76
2023/01/08 00:57:38;;;;;;;1.75;0.93;;;;;;;4.73;100.00;97962.91;5055055;28;20040;-76
2023/01/08 01:00:07;;;;;;;18.25;2.67;;;;;;;4.89;100.00;97974.97;5038716;28;20217;-77
2023/01/08 01:02:37;;;;;;;18.35;3.47;;;;;;;4.96;100.00;97974.97;5055469;28;20032;-76
2023/01/08 01:05:03;;;;;;;17.55;3.03;;;;;;;5.01;100.00;97978.63;5055325;28;20466;-76
2023/01/08 01:07:29;;;;;;;16.05;3.38;;;;;;;5.04;100.00;97982.72;5055283;28;20429;-76
2023/01/08 01:09:55;;;;;;;19.65;2.90;;;;;;;5.04;100.00;97988.06;5038797;28;20516;-76
2023/01/08 01:12:20;;;;;;;15.35;3.10;;;;;;;4.95;100.00;97981.28;5038944;28;20082;-76
2023/01/08 01:14:46;;;;;;;18.58;3.28;;;;;;;4.76;100.00;97959.84;5038432;28;20034;-76
2023/01/08 01:17:12;;;;;;;11.80;1.63;;;;;;;4.66;100.00;97958.59;5038898;28;20028;-76
2023/01/08 01:19:39;;;;;;;6.80;1.45;;;;;;;4.57;100.00;97942.84;5038724;28;20064;-76
2023/01/08 01:22:05;;;;;;;19.40;2.88;;;;;;;4.29;100.00;97936.97;5071579;28;20170;-76
2023/01/08 01:24:31;;;;;;;5.93;1.73;;;;;;;4.01;100.00;97914.03;5038351;28;20135;-77
2023/01/08 01:26:57;;;;;;;12.18;1.95;;;;;;;4.21;100.00;97943.28;5038577;28;20052;-76
2023/01/08 01:29:23;;;;;;;4.97;1.58;;;;;;;4.27;100.00;97944.31;5038654;28;20036;-76
2023/01/08 01:31:49;;;;;;;12.68;2.22;;;;;;;4.37;100.00;97950.88;5054968;28;20483;-75
2023/01/08 01:34:15;;;;;;;13.00;2.30;;;;;;;4.41;100.00;97944.09;5055119;28;20110;-76
2023/01/08 01:36:41;;;;;;;23.67;3.47;;;;;;;4.39;100.00;97934.69;5038867;28;20041;-76
2023/01/08 01:39:07;;;;;;;21.77;4.53;;;;;;;4.13;100.00;97923.03;5038823;28;20032;-76
2023/01/08 01:41:38;;;;;;;12.68;3.42;;;;;;;3.82;100.00;97922.81;5038596;28;20456;-76
2023/01/08 01:44:31;;;;;;;17.85;3.42;;;;;;;3.57;100.00;97907.41;5054778;28;20068;-76
2023/01/08 01:46:58;;;;;;;21.50;3.22;;;;;;;3.38;100.00;97905.53;5055049;28;20024;-76
2023/01/08 01:49:23;;;;;;;11.07;2.20;;;;;;;3.28;100.00;97900.56;5071752;28;20028;-76
2023/01/08 01:51:53;;;;;;;8.95;2.40;;;;;;;3.24;100.00;97918.75;5071587;28;20040;-76
2023/01/08 01:54:19;;;;;;;13.43;2.50;;;;;;;3.23;100.00;97909.16;5041043;28;20032;-77
2023/01/08 01:56:45;;;;;;;24.17;2.35;;;;;;;3.23;100.00;97909.16;5041961;28;20034;-76
2023/01/08 01:59:13;;;;;;;13.55;1.58;;;;;;;3.13;100.00;97907.88;5075190;28;20040;-76
2023/01/08 02:01:40;;;;;;;12.40;2.22;;;;;;;2.93;100.00;97890.03;5058610;28;20029;-75
2023/01/08 02:04:09;;;;;;;15.23;2.47;;;;;;;2.98;100.00;97900.06;5074793;28;20062;-77
2023/01/08 02:06:37;;;;;;;2.60;1.05;;;;;;;3.02;100.00;97899.47;5074958;28;20439;-77
2023/01/08 02:09:29;;;;;;;11.05;2.58;;;;;;;3.08;100.00;97889.91;5076169;28;20029;-74
2023/01/08 02:12:18;;;;;;;10.55;1.83;;;;;;;3.17;100.00;97878.06;5047543;28;20036;-77
2023/01/08 02:14:56;;;;;;;3.55;1.40;;;;;;;3.16;100.00;97889.72;5043860;28;20032;-77
2023/01/08 02:17:59;;;;;;;20.85;3.33;;;;;;;3.24;100.00;97899.34;5074598;28;20078;-76
2023/01/08 02:20:31;;;;;;;5.22;2.00;;;;;;;3.18;100.00;97889.53;5058518;28;20060;-77
2023/01/08 02:23:34;;;;;;;11.63;1.75;;;;;;;3.37;100.00;97899.41;5075081;28;20063;-75
2023/01/08 02:26:14;;;;;;;11.60;2.90;;;;;;;3.43;100.00;97889.81;5057856;28;20453;-74
2023/01/08 02:28:42;;;;;;;3.67;1.00;;;;;;;3.58;100.00;97902.94;5041588;28;20054;-74
2023/01/08 02:31:08;;;;;;;11.55;2.25;;;;;;;3.70;100.00;97883.50;5057933;28;20063;-75
2023/01/08 02:33:34;;;;;;;16.77;2.78;;;;;;;3.83;100.00;97885.38;5041274;28;20072;-75
2023/01/08 02:36:24;;;;;;;7.60;2.10;;;;;;;3.94;100.00;97895.41;5024871;28;20041;-75
2023/01/08 02:39:02;;;;;;;8.23;2.35;;;;;;;3.81;100.00;97863.50;5057990;28;20479;-74
2023/01/08 02:41:54;;;;;;;5.35;1.92;;;;;;;4.28;100.00;97911.38;5057457;28;20400;-75
2023/01/08 02:44:36;;;;;;;14.45;2.53;;;;;;;4.39;100.00;97922.22;5003819;28;20063;-75
2023/01/08 02:47:08;;;;;;;8.65;2.63;;;;;;;4.56;100.00;97938.56;5057756;28;20045;-75
2023/01/08 02:49:37;;;;;;;25.55;4.10;;;;;;;4.65;100.00;97949.81;5040918;28;20063;-75
2023/01/08 02:52:05;;;;;;;10.05;3.17;;;;;;;4.62;100.00;97961.69;5057051;28;20420;-74
2023/01/08 02:54:33;;;;;;;14.75;3.83;;;;;;;4.55;100.00;97966.22;5040788;28;20513;-77
2023/01/08 02:57:03;;;;;;;21.00;3.17;;;;;;;4.50;100.00;97958.03;5040926;28;20032;-75
2023/01/08 02:59:30;;;;;;;18.13;3.13;;;;;;;4.43;100.00;97929.78;5040907;28;20033;-77
2023/01/08 03:01:56;;;;;;;10.57;2.13;;;;;;;4.25;100.00;97920.56;5057067;28;20039;-78
2023/01/08 03:04:23;;;;;;;13.70;2.53;;;;;;;4.07;100.00;97925.69;5057141;28;20033;-77
2023/01/08 03:06:49;;;;;;;9.32;2.25;;;;;;;4.05;100.00;97947.16;5040839;28;20032;-75
2023/01/08 03:09:15;;;;;;;12.73;2.28;;;;;;;4.10;100.00;97951.84;5073587;28;20032;-77
2023/01/08 03:11:54;;;;;;;10.88;4.13;;;;;;;4.07;100.00;97941.63;5040669;28;20037;-77
2023/01/08 03:14:20;;;;;;;8.85;2.30;;;;;;;4.06;100.00;97940.00;5040304;28;20039;-76
2023/01/08 03:17:21;;;;;;;10.90;1.88;;;;;;;4.06;100.00;97945.31;5057231;28;20032;-77
2023/01/08 03:19:55;;;;;;;9.07;2.15;;;;;;;4.08;100.00;97922.03;5049353;28;20043;-76
2023/01/08 03:22:21;;;;;;;13.25;1.77;;;;;;;4.11;100.00;97926.91;5056752;28;20036;-76
2023/01/08 03:24:49;;;;;;;6.85;1.55;;;;;;;4.11;100.00;97911.78;5057083;28;20062;-77
2023/01/08 03:27:18;;;;;;;4.70;1.95;;;;;;;4.17;100.00;97913.63;5056724;28;20060;-77
2023/01/08 03:29:46;;;;;;;11.38;3.42;;;;;;;4.18;100.00;97901.13;5073210;28;20063;-77
2023/01/08 03:32:14;;;;;;;8.20;1.95;;;;;;;4.18;100.00;97906.44;5056417;28;20036;-76
2023/01/08 03:34:41;;;;;;;5.47;2.03;;;;;;;4.06;100.00;97877.00;5056487;28;20036;-75
2023/01/08 03:37:07;;;;;;;11.93;2.55;;;;;;;4.30;100.00;97904.00;5056331;28;20530;-77
2023/01/08 03:39:39;;;;;;;16.33;3.42;;;;;;;4.35;100.00;97901.56;5072969;28;20063;-77
2023/01/08 03:42:08;;;;;;;13.20;3.90;;;;;;;4.29;100.00;97913.84;5072773;28;20040;-77
2023/01/08 03:44:34;;;;;;;7.55;2.20;;;;;;;4.24;100.00;97896.84;5056601;28;20040;-78
2023/01/08 03:47:01;;;;;;;4.40;2.05;;;;;;;4.21;100.00;97899.91;5039868;28;20037;-77
2023/01/08 03:49:28;;;;;;;4.95;1.10;;;;;;;4.13;100.00;97909.75;5056273;28;20036;-78
2023/01/08 03:51:54;;;;;;;2.60;1.42;;;;;;;4.00;100.00;97885.81;5039902;28;20066;-75
2023/01/08 03:54:23;;;;;;;1.83;0.90;;;;;;;3.91;100.00;97882.50;5039801;28;20028;-76
2023/01/08 03:56:49;;;;;;;2.55;1.30;;;;;;;3.82;100.00;97865.13;5056282;28;20033;-78
2023/01/08 03:59:15;;;;;;;0.50;0.50;;;;;;;3.80;100.00;97869.03;5039840;28;20059;-76
2023/01/08 04:01:41;;;;;;;1.75;1.10;;;;;;;3.73;100.00;97863.69;5039754;28;20059;-75
2023/01/08 04:04:09;;;;;;;0.63;0.63;;;;;;;3.62;100.00;97858.97;5039582;28;20063;-77
2023/01/08 04:06:35;;;;;;;0.50;0.50;;;;;;;3.53;100.00;97840.56;5039655;28;20125;-75
2023/01/08 04:09:00;;;;;;;0.50;0.50;;;;;;;3.46;100.00;97858.34;5039447;28;20062;-75
2023/01/08 04:11:26;;;;;;;0.40;0.40;;;;;;;3.43;100.00;97857.94;5039470;28;20044;-75
2023/01/08 04:13:52;;;;;;;0.50;0.50;;;;;;;3.47;100.00;97861.84;5039536;28;20036;-75
2023/01/08 04:16:18;;;;;;;0.40;0.40;;;;;;;3.42;100.00;97857.13;5038906;28;20044;-75
2023/01/08 04:18:43;;;;;;;0.40;0.40;;;;;;;3.36;100.00;97852.63;5040265;28;20036;-75
2023/01/08 04:21:09;;;;;;;0.43;0.43;;;;;;;3.31;100.00;97844.44;5039448;28;20478;-75
2023/01/08 04:23:35;;;;;;;0.40;0.40;;;;;;;3.24;100.00;97843.59;5039462;28;20051;-74
2023/01/08 04:26:06;;;;;;;0.43;0.43;;;;;;;3.14;100.00;97845.81;5039418;28;20486;-75
2023/01/08 04:28:33;;;;;;;0.50;0.50;;;;;;;3.04;100.00;97849.66;5055513;28;20041;-75
2023/01/08 04:31:01;;;;;;;0.40;0.40;;;;;;;2.98;100.00;97861.06;5039608;28;20021;-75
2023/01/08 04:33:26;;;;;;;0.32;0.32;;;;;;;3.04;100.00;97862.09;5039218;28;20031;-74
2023/01/08 04:35:52;;;;;;;0.40;0.40;;;;;;;3.01;100.00;97852.69;5039095;28;20028;-74
2023/01/08 04:38:18;;;;;;;0.40;0.40;;;;;;;3.05;100.00;97858.44;5039293;28;20356;-73
2023/01/08 04:40:44;;;;;;;0.50;0.50;;;;;;;3.04;100.00;97836.38;5039291;28;20135;-75
2023/01/08 04:43:09;;;;;;;0.40;0.40;;;;;;;3.13;100.00;97828.25;5039107;28;20043;-74
2023/01/08 04:45:35;;;;;;;0.40;0.40;;;;;;;3.18;100.00;97839.09;5071659;28;20123;-75
2023/01/08 04:48:01;;;;;;;0.52;0.50;;;;;;;3.30;100.00;97827.66;5055206;28;20032;-74
2023/01/08 04:50:26;;;;;;;0.43;0.43;;;;;;;3.41;100.00;97842.19;5039199;28;20040;-74
2023/01/08 04:52:52;;;;;;;0.40;0.40;;;;;;;3.42;100.00;97827.09;5054816;28;20375;-75
2023/01/08 04:55:19;;;;;;;0.40;0.40;;;;;;;3.38;100.00;97821.34;5038916;28;20084;-74
2023/01/08 04:57:44;;;;;;;0.40;0.40;;;;;;;3.33;100.00;97825.63;5038927;28;20041;-76
2023/01/08 05:00:11;;;;;;;0.40;0.40;;;;;;;3.17;100.00;97818.84;5055360;28;20033;-73
2023/01/08 05:02:37;;;;;;;0.40;0.40;;;;;;;2.93;100.00;97799.78;5055518;28;20064;-74
2023/01/08 05:05:02;;;;;;;0.45;0.45;;;;;;;2.82;100.00;97803.03;5055295;28;20060;-75
2023/01/08 05:07:28;;;;;;;0.40;0.40;;;;;;;2.65;100.00;97797.25;5038991;28;20078;-75
2023/01/08 05:09:54;;;;;;;0.40;0.40;;;;;;;2.60;100.00;97803.16;5038942;28;20117;-75
2023/01/08 05:12:19;;;;;;;0.43;0.43;;;;;;;2.52;100.00;97781.28;5038939;28;20036;-74
2023/01/08 05:14:46;;;;;;;0.50;0.50;;;;;;;2.48;100.00;97788.78;5038577;28;20028;-75
2023/01/08 05:17:14;;;;;;;0.40;0.40;;;;;;;2.42;100.00;97773.69;5055313;28;20397;-77
2023/01/08 05:19:40;;;;;;;0.40;0.40;;;;;;;2.38;100.00;97783.03;5038796;28;20119;-75
2023/01/08 05:22:06;;;;;;;0.60;0.60;;;;;;;2.41;100.00;97790.63;5038908;28;20123;-75
2023/01/08 05:24:32;;;;;;;0.30;0.30;;;;;;;2.49;100.00;97802.88;5038742;28;20094;-76
2023/01/08 05:26:57;;;;;;;0.50;0.50;;;;;;;2.53;100.00;97799.63;5038724;28;20471;-75
2023/01/08 05:29:23;;;;;;;0.50;0.50;;;;;;;2.50;100.00;97797.38;5042030;28;20036;-75
2023/01/08 05:31:49;;;;;;;0.50;0.50;;;;;;;2.50;100.00;97794.72;5042524;28;20044;-75
2023/01/08 05:34:14;;;;;;;0.40;0.40;;;;;;;2.60;100.00;97786.41;5042414;28;20048;-75
2023/01/08 05:36:40;;;;;;;0.50;0.50;;;;;;;2.72;100.00;97768.91;5059254;28;20041;-76
2023/01/08 05:39:06;;;;;;;0.40;0.40;;;;;;;2.87;100.00;97782.00;5042428;28;20033;-74
2023/01/08 05:41:32;;;;;;;0.50;0.50;;;;;;;2.88;100.00;97781.00;5042329;28;20490;-75
2023/01/08 05:43:57;;;;;;;0.43;0.43;;;;;;;2.89;100.00;97781.84;5042349;28;20060;-75
2023/01/08 05:46:23;;;;;;;0.40;0.40;;;;;;;2.89;100.00;97780.00;5042393;28;20043;-75
2023/01/08 05:48:49;;;;;;;0.40;0.40;;;;;;;2.76;100.00;97779.94;5042197;28;20067;-75
2023/01/08 05:51:14;;;;;;;0.50;0.50;;;;;;;2.64;100.00;97777.03;5042393;28;20494;-75
2023/01/08 05:53:40;;;;;;;0.68;0.68;;;;;;;2.52;100.00;97752.09;5042088;28;20032;-75
2023/01/08 05:56:08;;;;;;;0.40;0.40;;;;;;;2.45;100.00;97741.47;5042276;28;20032;-74
2023/01/08 05:58:33;;;;;;;0.40;0.40;;;;;;;2.49;100.00;97742.72;5041926;28;20390;-74
2023/01/08 06:01:10;;;;;;;0.40;0.40;;;;;;;2.50;100.00;97744.34;5042157;28;20078;-74
2023/01/08 06:03:36;;;;;;;0.50;0.50;;;;;;;2.51;100.00;97745.16;5041974;28;20032;-75
2023/01/08 06:06:04;;;;;;;0.40;0.40;;;;;;;2.53;100.00;97751.06;5042060;28;20040;-75
2023/01/08 06:08:30;;;;;;;0.50;0.50;;;;;;;2.61;100.00;97741.09;5058631;28;20032;-73
2023/01/08 06:11:05;;;;;;;0.40;0.40;;;;;;;2.72;100.00;97744.19;5042083;28;20037;-75
2023/01/08 06:13:32;;;;;;;0.40;0.40;;;;;;;2.73;100.00;97737.91;5041745;28;20028;-74
2023/01/08 06:16:01;;;;;;;0.40;0.40;;;;;;;2.71;100.00;97730.13;5058390;28;20039;-75
2023/01/08 06:18:29;;;;;;;0.50;0.50;;;;;;;2.68;100.00;97733.19;5042266;28;20043;-75
2023/01/08 06:20:55;;;;;;;0.50;0.50;;;;;;;2.63;100.00;97720.50;5057781;28;20429;-75
2023/01/08 06:23:20;;;;;;;0.40;0.40;;;;;;;2.57;100.00;97721.31;5041703;28;20040;-75
2023/01/08 06:25:58;;;;;;;0.40;0.40;;;;;;;2.57;100.00;97725.81;5041689;28;20033;-75
2023/01/08 06:28:24;;;;;;;0.50;0.50;;;;;;;2.62;100.00;97718.88;5057945;28;20050;-74
2023/01/08 06:30:50;;;;;;;0.50;0.50;;;;;;;2.64;100.00;97716.81;5057942;28;20032;-74
2023/01/08 06:33:16;;;;;;;0.40;0.40;;;;;;;2.68;100.00;97722.56;5041471;28;20375;-74
2023/01/08 06:35:42;;;;;;;0.40;0.40;;;;;;;2.62;100.00;97708.28;5058087;28;20051;-75
2023/01/08 06:38:10;;;;;;;0.40;0.40;;;;;;;2.52;100.00;97704.38;5041138;28;20033;-73
2023/01/08 06:40:36;;;;;;;0.50;0.50;;;;;;;2.44;100.00;97710.66;5041185;28;20040;-74
2023/01/08 06:43:05;;;;;;;0.40;0.40;;;;;;;2.41;100.00;97697.81;5040959;28;20528;-74
2023/01/08 06:45:31;;;;;;;0.50;0.50;;;;;;;2.32;100.00;97689.19;5073994;28;20470;-74
2023/01/08 06:48:01;;;;;;;0.40;0.40;;;;;;;2.33;100.00;97684.69;5057304;28;20021;-74
2023/01/08 06:50:28;;;;;;;0.50;0.50;;;;;;;2.27;100.00;97669.59;5041069;28;20036;-74
2023/01/08 06:52:54;;;;;;;0.40;0.40;;;;;;;2.31;100.00;97671.66;5040628;28;20083;-74
2023/01/08 06:55:21;;;;;;;0.50;0.50;;;;;;;2.23;100.00;97673.66;5041007;28;20094;-75
2023/01/08 06:57:47;;;;;;;0.40;0.40;;;;;;;2.10;100.00;97680.53;5073696;28;20020;-74
2023/01/08 07:00:14;;;;;;;0.40;0.40;;;;;;;1.98;100.00;97672.34;5057129;28;20028;-74
2023/01/08 07:02:39;;;;;;;0.47;0.47;;;;;;;1.92;100.00;97677.59;5057075;28;20391;-75
2023/01/08 07:05:05;;;;;;;0.50;0.50;;;;;;;1.97;100.00;97685.78;5040770;28;20032;-75
2023/01/08 07:07:31;;;;;;;0.50;0.50;;;;;;;1.92;100.00;97688.19;5057112;28;20481;-74
2023/01/08 07:09:57;;;;;;;0.40;0.40;;;;;;;1.97;100.00;97683.13;5040242;28;20440;-74
2023/01/08 07:12:24;;;;;;;0.40;0.40;;;;;;;2.10;100.00;97693.78;5040770;28;20123;-74
2023/01/08 07:14:49;;;;;;;0.40;0.40;;;;;;;2.14;100.00;97678.31;5039727;28;20033;-74
2023/01/08 07:17:15;;;;;;;0.47;0.47;;;;;;;2.18;100.00;97679.56;5073643;28;20078;-76
2023/01/08 07:19:42;;;;;;;0.50;0.50;;;;;;;2.25;100.00;97684.88;5040348;28;20466;-75
2023/01/08 07:22:08;;;;;;;1.65;0.57;;;;;;;2.22;100.00;97685.28;5056648;28;20033;-75
2023/01/08 07:24:34;;;;;;;0.40;0.40;;;;;;;2.29;100.00;97686.13;5073053;28;20032;-74
2023/01/08 07:26:59;;;;;;;0.50;0.50;;;;;;;2.43;100.00;97685.13;5040311;28;20037;-75
2023/01/08 07:29:26;;;;;;;0.50;0.50;;;;;;;2.60;100.00;97678.47;5040123;28;20036;-74
2023/01/08 07:31:52;;;;;;;0.40;0.40;;;;;;;2.77;100.00;97707.28;5040327;28;20035;-74
2023/01/08 07:34:18;;;;;;;0.43;0.43;;;;;;;2.96;100.00;97709.13;5056831;28;20025;-74
2023/01/08 07:36:44;;;;;;;0.40;0.40;;;;;;;3.05;100.00;97710.59;5056042;28;20044;-74
2023/01/08 07:39:10;;;;;;;0.50;0.50;;;;;;;3.08;100.00;97707.53;5039764;28;20036;-74
2023/01/08 07:41:43;;;;;;;0.40;0.40;;;;;;;3.09;100.00;97711.00;5040123;28;20103;-75
2023/01/08 07:44:10;;;;;;;0.50;0.50;;;;;;;3.15;100.00;97712.88;5056298;28;20044;-75
2023/01/08 07:46:35;;;;;;;0.60;0.60;;;;;;;3.24;100.00;97732.06;5040055;28;20060;-75
2023/01/08 07:49:01;;;;;;;0.40;0.40;;;;;;;3.21;100.00;97722.66;5072428;28;20064;-75
2023/01/08 07:51:27;;;;;;;0.47;0.47;;;;;;;2.98;100.00;97693.84;5039147;28;20048;-74
2023/01/08 07:53:55;;;;;;;0.50;0.50;;;;;;;2.81;100.00;97695.25;5055508;28;20028;-74
2023/01/08 07:56:21;;;;;;;0.40;0.40;;;;;;;2.68;100.00;97700.53;5039578;28;20039;-74
2023/01/08 07:58:47;;;;;;;0.88;0.88;;;;;;;2.56;100.00;97689.66;5039580;28;20487;-75
2023/01/08 08:01:14;;;;;;;0.50;0.50;;;;;;;2.51;100.00;97703.53;5039510;28;20124;-73
2023/01/08 08:03:40;;;;;;;0.50;0.50;;;;;;;2.50;100.00;97690.47;5056319;28;20025;-74
2023/01/08 08:06:06;;;;;;;0.40;0.40;;;;;;;2.43;100.00;97695.75;5055426;28;20532;-73
2023/01/08 08:08:32;;;;;;;0.40;0.40;;;;;;;2.30;100.00;97695.69;5039418;28;20032;-75
2023/01/08 08:10:58;;;;;;;0.50;0.50;;;;;;;2.07;100.00;97696.84;5039462;28;20025;-75
2023/01/08 08:13:23;;;;;;;0.40;0.40;;;;;;;1.90;100.00;97695.53;5039019;28;20170;-74
2023/01/08 08:15:49;;;;;;;0.70;0.70;;;;;;;1.94;100.00;97692.28;5039498;28;20036;-74
2023/01/08 08:18:15;;;;;;;0.50;0.50;;;;;;;2.02;100.00;97686.00;5056135;28;20169;-74
2023/01/08 08:20:41;;;;;;;0.40;0.40;;;;;;;1.96;100.00;97692.09;5039163;28;20032;-74
2023/01/08 08:23:08;;;;;;;0.40;0.40;;;;;;;1.89;100.00;97686.75;5039252;28;20025;-74
2023/01/08 08:25:35;;;;;;;0.50;0.50;;;;;;;1.70;100.00;97682.19;5039620;28;20036;-74
2023/01/08 08:28:01;;;;;;;0.45;0.45;;;;;;;1.58;100.00;97686.38;5039378;28;20039;-74
2023/01/08 08:30:28;;;;;;;0.40;0.40;;;;;;;1.59;100.00;97677.41;5055893;28;20028;-73
2023/01/08 08:32:54;;;;;;;0.43;0.43;;;;;;;1.64;100.00;97665.22;5072629;28;20032;-73
2023/01/08 08:35:21;;;;;;;0.50;0.50;;;;;;;1.77;100.00;97675.06;5038818;28;20114;-74
2023/01/08 08:37:47;;;;;;;0.43;0.43;;;;;;;1.88;100.00;97665.75;5039224;28;20428;-74
2023/01/08 08:40:12;;;;;;;0.50;0.50;;;;;;;2.02;100.00;97667.47;5055610;28;20032;-74
2023/01/08 08:42:38;;;;;;;0.40;0.40;;;;;;;2.11;100.00;97649.56;5055264;28;20473;-74
2023/01/08 08:45:04;;;;;;;0.43;0.43;;;;;;;2.12;100.00;97657.31;5039222;28;20094;-74
2023/01/08 08:47:30;;;;;;;0.50;0.50;;;;;;;2.27;100.00;97654.50;5038771;28;20402;-74
2023/01/08 08:49:56;;;;;;;0.47;0.47;;;;;;;2.27;100.00;97641.25;5038634;28;20036;-73
2023/01/08 08:52:22;;;;;;;0.40;0.40;;;;;;;2.14;100.00;97641.19;5039135;28;20119;-74
2023/01/08 08:54:47;;;;;;;0.50;0.50;;;;;;;1.97;100.00;97638.09;5038891;28;20459;-75
2023/01/08 08:57:13;;;;;;;0.50;0.50;;;;;;;1.84;100.00;97646.78;5039037;28;20443;-74
2023/01/08 08:59:39;;;;;;;0.43;0.43;;;;;;;1.84;100.00;97648.63;5071506;28;20032;-76
2023/01/08 09:02:04;;;;;;;0.50;0.50;;;;;;;1.97;100.00;97649.50;5040170;28;20119;-74
2023/01/08 09:04:33;;;;;;;0.50;0.50;;;;;;;2.15;100.00;97651.63;5042728;28;20060;-78
2023/01/08 09:06:59;;;;;;;0.50;0.50;;;;;;;2.25;100.00;97640.66;5059342;28;20035;-76
2023/01/08 09:09:25;;;;;;;0.40;0.40;;;;;;;2.27;100.00;97640.44;5042872;28;20028;-74
2023/01/08 09:11:53;;;;;;;0.45;0.45;;;;;;;2.27;100.00;97629.81;5059502;28;20075;-77
2023/01/08 09:14:20;;;;;;;0.47;0.47;;;;;;;2.38;100.00;97637.19;5042684;28;20115;-77
2023/01/08 09:16:45;;;;;;;0.40;0.40;;;;;;;2.63;100.00;97638.28;5077136;28;20039;-76
2023/01/08 09:19:11;;;;;;;0.40;0.40;;;;;;;2.76;100.00;97626.88;5059248;28;20040;-77
2023/01/08 09:21:37;;;;;;;0.50;0.50;;;;;;;2.99;100.00;97633.59;5075749;28;20471;-77
2023/01/08 09:24:03;;;;;;;0.50;0.50;;;;;;;3.09;100.00;97616.25;5076721;28;20379;-77
2023/01/08 09:26:29;;;;;;;0.50;0.50;;;;;;;3.24;100.00;97628.50;5075806;28;20060;-77
2023/01/08 09:29:01;;;;;;;0.50;0.50;;;;;;;3.29;100.00;97639.34;5075801;28;20040;-77
2023/01/08 09:31:26;;;;;;;0.50;0.50;;;;;;;3.27;100.00;97623.59;5059619;28;20123;-77
2023/01/08 09:33:52;;;;;;;0.50;0.50;;;;;;;3.28;100.00;97624.41;5075260;28;20115;-76
2023/01/08 09:36:21;;;;;;;0.50;0.50;;;;;;;3.34;100.00;97622.78;5075902;28;20079;-77
2023/01/08 09:38:46;;;;;;;0.50;0.50;;;;;;;3.41;100.00;97618.25;5075658;28;20028;-77
2023/01/08 09:41:21;;;;;;;0.50;0.50;;;;;;;3.52;100.00;97630.94;5075844;28;20040;-73
2023/01/08 09:43:49;;;;;;;0.50;0.50;;;;;;;3.69;100.00;97625.97;5076755;28;20119;-73
2023/01/08 09:46:17;;;;;;;0.50;0.50;;;;;;;3.96;100.00;97640.81;5075491;28;20028;-73
2023/01/08 09:48:43;;;;;;;0.50;0.50;;;;;;;3.92;100.00;97642.28;5058899;28;20044;-73
2023/01/08 09:51:15;;;;;;;0.55;0.55;;;;;;;3.82;100.00;97627.78;5042114;28;20037;-73
2023/01/08 09:53:42;;;;;;;0.50;0.50;;;;;;;3.81;100.00;97629.63;5042038;28;20029;-73
2023/01/08 09:56:14;;;;;;;0.43;0.43;;;;;;;3.77;100.00;97623.09;5075338;28;20044;-73
2023/01/08 09:58:44;;;;;;;0.50;0.50;;;;;;;3.78;100.00;97635.34;5075091;28;20530;-73
2023/01/08 10:01:13;;;;;;;0.40;0.40;;;;;;;3.76;100.00;97626.78;5042006;28;20542;-73
2023/01/08 10:04:15;;;;;;;0.40;0.40;;;;;;;3.69;100.00;97628.63;5042847;28;20436;-73
2023/01/08 10:07:01;;;;;;;0.40;0.40;;;;;;;3.57;100.00;97628.44;5036910;28;20040;-73
2023/01/08 10:09:29;;;;;;;0.40;0.40;;;;;;;3.59;100.00;97626.41;5074790;28;20024;-77
2023/01/08 10:12:00;;;;;;;0.50;0.50;;;;;;;3.67;100.00;97623.53;5058372;28;20036;-76
2023/01/08 10:14:29;;;;;;;0.50;0.50;;;;;;;3.86;100.00;97611.19;5074023;28;20029;-77
2023/01/08 10:17:12;;;;;;;0.50;0.50;;;;;;;4.15;100.00;97619.66;5058322;28;20032;-77
2023/01/08 10:19:38;;;;;;;0.50;0.50;;;;;;;4.28;100.00;97614.28;5074900;28;20037;-77
2023/01/08 10:22:11;;;;;;;0.50;0.50;;;;;;;4.34;100.00;97610.78;5074596;28;20039;-77
2023/01/08 10:24:40;;;;;;;0.50;0.50;;;;;;;4.60;100.00;97627.63;5058260;28;20467;-77
2023/01/08 10:27:13;;;;;;;0.50;0.50;;;;;;;5.40;100.00;97627.84;5042189;28;20029;-77
2023/01/08 10:29:40;;;;;;;0.50;0.50;;;;;;;6.42;100.00;97624.66;5058403;28;20063;-77
2023/01/08 10:32:17;;;;;;;0.50;0.50;;;;;;;5.98;100.00;97618.66;5074676;28;20040;-77
2023/01/08 10:34:48;;;;;;;0.40;0.40;;;;;;;5.35;100.00;97618.88;5074468;28;20398;-77
2023/01/08 10:37:22;;;;;;;0.50;0.50;;;;;;;4.99;100.00;97623.88;5058068;28;20066;-78
2023/01/08 10:39:48;;;;;;;0.50;0.50;;;;;;;4.93;100.00;97621.28;5041186;28;20390;-78
2023/01/08 10:42:16;;;;;;;0.50;0.50;;;;;;;5.00;100.00;97617.53;5041019;28;20435;-78
2023/01/08 10:45:03;;;;;;;0.50;0.50;;;;;;;5.19;100.00;97609.59;5057844;28;20025;-77
2023/01/08 10:47:31;;;;;;;0.50;0.50;;;;;;;5.27;100.00;97606.66;5057986;28;20147;-77
2023/01/08 10:49:58;;;;;;;0.60;0.60;;;;;;;6.78;100.00;97599.69;5074057;28;20025;-77
2023/01/08 10:52:25;;;;;;;0.90;0.90;;;;;;;8.07;100.00;97582.81;5041036;28;20044;-78
2023/01/08 10:54:51;;;;;;;1.08;0.95;;;;;;;8.87;100.00;97590.97;5074117;28;20034;-78
2023/01/08 10:57:26;;;;;;;0.73;0.60;;;;;;;7.42;100.00;97602.56;5057730;28;20119;-77
2023/01/08 10:59:53;;;;;;;0.68;0.60;;;;;;;5.88;100.00;97586.31;5057283;28;20390;-77
2023/01/08 11:02:35;;;;;;;0.45;0.45;;;;;;;5.24;100.00;97597.25;5057486;28;20386;-77
2023/01/08 11:05:03;;;;;;;0.77;0.77;;;;;;;5.13;100.00;97599.78;5074239;28;20028;-78
2023/01/08 11:07:29;;;;;;;1.45;1.00;;;;;;;5.24;100.00;97605.22;5057552;28;20035;-77
2023/01/08 11:09:54;;;;;;;1.65;0.93;;;;;;;5.55;100.00;97603.47;5040917;28;20040;-78
2023/01/08 11:12:40;;;;;;;1.13;0.70;;;;;;;5.81;100.00;97596.25;5073909;28;20029;-78
2023/01/08 11:15:28;;;;;;;3.83;1.40;;;;;;;5.91;100.00;97597.34;5057231;28;20060;-79
2023/01/08 11:17:53;;;;;;;2.67;0.65;;;;;;;5.96;100.00;97590.56;5074890;28;20443;-77
2023/01/08 11:20:32;;;;;;;4.65;1.02;;;;;;;6.09;100.00;97596.56;5057123;28;20032;-79
2023/01/08 11:23:20;;;;;;;6.32;0.85;;;;;;;6.48;100.00;97596.22;5073794;28;20029;-78
2023/01/08 11:26:13;;;;;;;2.10;0.90;;;;;;;7.00;100.00;97589.28;5039432;28;20494;-78
2023/01/08 11:28:59;;;;;;;1.70;0.90;;;;;;;7.08;100.00;97598.00;5073362;28;20025;-79
2023/01/08 11:31:36;;;;;;;1.30;0.70;;;;;;;6.97;100.00;97604.97;5073526;28;20186;-78
2023/01/08 11:34:11;;;;;;;2.67;0.80;;;;;;;6.63;100.00;97599.31;5057319;28;20032;-78
2023/01/08 11:36:53;;;;;;;1.50;0.80;;;;;;;6.18;100.00;97597.06;5024597;28;20059;-78
2023/01/08 11:39:18;;;;;;;2.45;1.35;;;;;;;5.98;100.00;97596.47;5073165;28;20029;-79